Time;durP1;ratioP1;P1;durP2;ratioP2;P2;SDS_P1;SDS_P2;PMS_P1;PMS_P2;Temp;Humidity;BMP_temperature;BMP_pressure;BME280_temperature;BME280_humidity;BME280_pressure;Samples;Min_cycle;Max_cycle;Signal;HPM_P1;HPM_P2
2022/07/29 00:01:23;;;;;;;11.13;6.78;;;;;;;;;;5071744;28;20033;-75
2022/07/29 00:03:49;;;;;;;11.90;7.00;;;;;;;;;;5071700;28;20062;-74
2022/07/29 00:06:15;;;;;;;13.40;6.25;;;;;;;;;;5071887;28;20073;-73
2022/07/29 00:08:41;;;;;;;13.88;6.20;;;;;;;;;;5071897;28;20082;-76
2022/07/29 00:11:07;;;;;;;10.95;5.80;;;;;;;;;;5071990;28;20124;-73
2022/07/29 00:13:33;;;;;;;9.00;5.93;;;;;;;;;;5071812;28;20082;-76
2022/07/29 00:15:59;;;;;;;9.18;5.90;;;;;;;;;;5071829;28;20029;-76
2022/07/29 00:18:25;;;;;;;10.90;5.57;;;;;;;;;;5071815;28;20098;-77
2022/07/29 00:20:51;;;;;;;9.02;6.05;;;;;;;;;;5071487;28;20043;-77
2022/07/29 00:23:17;;;;;;;12.80;5.90;;;;;;;;;;5070947;28;20040;-77
2022/07/29 00:25:43;;;;;;;9.50;5.72;;;;;;;;;;5051240;28;20095;-76
2022/07/29 00:28:08;;;;;;;10.35;6.43;;;;;;;;;;5051689;28;20496;-74
2022/07/29 00:30:35;;;;;;;13.88;7.57;;;;;;;;;;5051533;28;20132;-76
2022/07/29 00:33:01;;;;;;;17.52;8.10;;;;;;;;;;5051608;28;20083;-71
2022/07/29 00:35:45;;;;;;;14.15;8.18;;;;;;;;;;5051526;28;20025;-76
2022/07/29 00:38:15;;;;;;;10.35;7.50;;;;;;;;;;5051613;28;20037;-77
2022/07/29 00:40:42;;;;;;;12.13;7.13;;;;;;;;;;5051590;28;20476;-76
2022/07/29 00:43:09;;;;;;;10.77;6.95;;;;;;;;;;5051276;28;20037;-77
2022/07/29 00:45:34;;;;;;;8.90;6.18;;;;;;;;;;5068801;28;20112;-76
2022/07/29 00:48:03;;;;;;;10.77;7.20;;;;;;;;;;5071175;28;20115;-76
2022/07/29 00:50:29;;;;;;;11.35;7.82;;;;;;;;;;5071824;28;20376;-75
2022/07/29 00:52:55;;;;;;;10.50;6.93;;;;;;;;;;5071369;28;20028;-76
2022/07/29 00:55:21;;;;;;;13.48;7.28;;;;;;;;;;5070881;28;20032;-76
2022/07/29 00:57:47;;;;;;;16.38;7.45;;;;;;;;;;5058278;28;20086;-75
2022/07/29 01:00:20;;;;;;;15.05;6.93;;;;;;;;;;5054749;28;20484;-76
2022/07/29 01:02:50;;;;;;;11.98;7.00;;;;;;;;;;5070645;28;20111;-76
2022/07/29 01:05:20;;;;;;;17.40;8.25;;;;;;;;;;5075122;28;20083;-76
2022/07/29 01:07:48;;;;;;;12.73;7.75;;;;;;;;;;5075023;28;20429;-77
2022/07/29 01:10:16;;;;;;;13.90;7.60;;;;;;;;;;5074402;28;20111;-74
2022/07/29 01:12:46;;;;;;;13.98;7.63;;;;;;;;;;5067778;28;20041;-77
2022/07/29 01:15:12;;;;;;;13.02;7.72;;;;;;;;;;5070245;28;20082;-77
2022/07/29 01:18:04;;;;;;;11.30;7.32;;;;;;;;;;5074531;28;20044;-77
2022/07/29 01:21:25;;;;;;;13.32;7.13;;;;;;;;;;5046201;28;20557;-76
2022/07/29 01:24:23;;;;;;;11.23;6.57;;;;;;;;;;5032028;28;20037;-76
2022/07/29 01:26:56;;;;;;;11.00;6.60;;;;;;;;;;5074616;28;20036;-77
2022/07/29 01:29:59;;;;;;;12.20;7.35;;;;;;;;;;5074244;28;20036;-75
2022/07/29 01:32:32;;;;;;;15.88;7.07;;;;;;;;;;5031837;28;20040;-77
2022/07/29 01:35:05;;;;;;;12.30;7.07;;;;;;;;;;5068507;28;20052;-77
2022/07/29 01:37:54;;;;;;;8.32;6.20;;;;;;;;;;5074430;28;20471;-76
2022/07/29 01:40:42;;;;;;;12.45;6.80;;;;;;;;;;5074446;28;20037;-76
2022/07/29 01:43:16;;;;;;;8.48;6.00;;;;;;;;;;5074283;28;20123;-75
2022/07/29 01:45:47;;;;;;;8.63;5.80;;;;;;;;;;5074171;28;20476;-75
2022/07/29 01:48:18;;;;;;;11.63;5.88;;;;;;;;;;5074322;28;20033;-76
2022/07/29 01:51:04;;;;;;;9.30;5.90;;;;;;;;;;5073986;28;20103;-76
2022/07/29 01:53:46;;;;;;;10.50;5.72;;;;;;;;;;5073771;28;20098;-77
2022/07/29 01:56:13;;;;;;;9.13;5.78;;;;;;;;;;5073672;28;20115;-77
2022/07/29 01:58:42;;;;;;;9.85;6.25;;;;;;;;;;5073975;28;20063;-76
2022/07/29 02:01:10;;;;;;;9.15;5.13;;;;;;;;;;5073796;28;20033;-76
2022/07/29 02:03:38;;;;;;;10.95;5.88;;;;;;;;;;5073634;28;20475;-74
2022/07/29 02:06:07;;;;;;;13.95;5.93;;;;;;;;;;5073719;28;20495;-77
2022/07/29 02:08:34;;;;;;;11.35;5.30;;;;;;;;;;5073588;28;20016;-76
2022/07/29 02:11:03;;;;;;;13.27;5.38;;;;;;;;;;5073599;28;20029;-76
2022/07/29 02:13:31;;;;;;;8.75;5.07;;;;;;;;;;5073362;28;20050;-76
2022/07/29 02:15:59;;;;;;;14.25;6.88;;;;;;;;;;5073507;28;20071;-76
2022/07/29 02:18:27;;;;;;;21.10;8.15;;;;;;;;;;5073907;28;20029;-77
2022/07/29 02:20:56;;;;;;;16.67;6.43;;;;;;;;;;5073318;28;20025;-76
2022/07/29 02:23:24;;;;;;;9.38;5.30;;;;;;;;;;5073486;28;20036;-76
2022/07/29 02:25:56;;;;;;;18.13;6.82;;;;;;;;;;5073454;28;20040;-75
2022/07/29 02:28:25;;;;;;;12.02;6.47;;;;;;;;;;5073539;28;20111;-75
2022/07/29 02:30:53;;;;;;;16.75;7.53;;;;;;;;;;5073333;28;20465;-77
2022/07/29 02:33:21;;;;;;;9.15;5.55;;;;;;;;;;5073214;28;20035;-76
2022/07/29 02:35:48;;;;;;;9.45;4.93;;;;;;;;;;5073177;28;20064;-76
2022/07/29 02:41:12;;;;;;;9.48;5.40;;;;;;;;;;5058305;28;20059;-75
2022/07/29 02:43:40;;;;;;;6.57;4.50;;;;;;;;;;5073306;28;20048;-76
2022/07/29 02:46:13;;;;;;;14.63;5.30;;;;;;;;;;5073032;28;20028;-77
2022/07/29 02:48:51;;;;;;;12.68;4.57;;;;;;;;;;5073117;28;20039;-76
2022/07/29 02:51:23;;;;;;;8.43;4.35;;;;;;;;;;5072570;28;20104;-75
2022/07/29 02:53:53;;;;;;;6.13;4.07;;;;;;;;;;5072556;28;20024;-76
2022/07/29 02:56:25;;;;;;;10.90;5.28;;;;;;;;;;5072860;28;20044;-75
2022/07/29 02:58:56;;;;;;;20.90;5.80;;;;;;;;;;5059465;28;20029;-75
2022/07/29 03:01:25;;;;;;;9.50;4.57;;;;;;;;;;5057226;28;20340;-76
2022/07/29 03:03:53;;;;;;;8.18;3.97;;;;;;;;;;5054341;28;20041;-77
2022/07/29 03:06:23;;;;;;;14.95;5.10;;;;;;;;;;5052542;28;20031;-73
2022/07/29 03:08:50;;;;;;;7.28;4.20;;;;;;;;;;5052507;28;20107;-76
2022/07/29 03:11:17;;;;;;;10.63;4.65;;;;;;;;;;5052864;28;20041;-76
2022/07/29 03:13:43;;;;;;;16.02;4.70;;;;;;;;;;5052699;28;20037;-76
2022/07/29 03:16:11;;;;;;;12.15;4.88;;;;;;;;;;5052446;28;20086;-76
2022/07/29 03:18:38;;;;;;;11.38;6.10;;;;;;;;;;5052320;28;20033;-75
2022/07/29 03:21:04;;;;;;;18.65;6.30;;;;;;;;;;5052459;28;20029;-75
2022/07/29 03:23:30;;;;;;;11.95;7.45;;;;;;;;;;5052379;28;20473;-75
2022/07/29 03:25:56;;;;;;;16.80;7.32;;;;;;;;;;5052580;28;20048;-77
2022/07/29 03:28:23;;;;;;;17.33;7.70;;;;;;;;;;5052025;28;20108;-77
2022/07/29 03:30:49;;;;;;;14.18;7.07;;;;;;;;;;5061738;28;20051;-76
2022/07/29 03:33:16;;;;;;;24.48;7.28;;;;;;;;;;5052427;28;20436;-76
2022/07/29 03:35:42;;;;;;;12.70;6.00;;;;;;;;;;5052401;28;20032;-76
2022/07/29 03:38:08;;;;;;;16.02;6.10;;;;;;;;;;5052067;28;20087;-76
2022/07/29 03:40:42;;;;;;;10.75;5.82;;;;;;;;;;5067146;28;20039;-75
2022/07/29 03:43:09;;;;;;;12.27;6.60;;;;;;;;;;5072227;28;20039;-74
2022/07/29 03:45:36;;;;;;;13.68;6.60;;;;;;;;;;5068448;28;20108;-76
2022/07/29 03:48:08;;;;;;;19.52;8.05;;;;;;;;;;5062743;28;20044;-75
2022/07/29 03:50:34;;;;;;;12.70;5.60;;;;;;;;;;5071597;28;20033;-75
2022/07/29 03:53:01;;;;;;;12.70;4.95;;;;;;;;;;5062189;28;20395;-76
2022/07/29 03:55:32;;;;;;;9.30;4.53;;;;;;;;;;5051700;28;20044;-76
2022/07/29 03:58:00;;;;;;;10.57;4.53;;;;;;;;;;5051224;28;20029;-76
2022/07/29 04:00:27;;;;;;;8.63;4.00;;;;;;;;;;5053296;28;20383;-76
2022/07/29 04:02:53;;;;;;;14.02;4.90;;;;;;;;;;5071418;28;20029;-76
2022/07/29 04:05:19;;;;;;;9.57;4.63;;;;;;;;;;5071785;28;20044;-74
2022/07/29 04:07:49;;;;;;;10.65;4.45;;;;;;;;;;5071636;28;20033;-75
2022/07/29 04:10:18;;;;;;;14.20;4.53;;;;;;;;;;5071631;28;20040;-73
2022/07/29 04:12:44;;;;;;;10.50;5.15;;;;;;;;;;5071523;28;20624;-76
2022/07/29 04:15:11;;;;;;;13.05;4.70;;;;;;;;;;5071073;28;20345;-77
2022/07/29 04:17:37;;;;;;;8.50;4.25;;;;;;;;;;5070204;28;20129;-78
2022/07/29 04:20:04;;;;;;;9.15;4.10;;;;;;;;;;5071210;28;20033;-76
2022/07/29 04:22:30;;;;;;;12.68;4.85;;;;;;;;;;5071500;28;20186;-77
2022/07/29 04:24:56;;;;;;;11.38;4.35;;;;;;;;;;5071193;28;20470;-75
2022/07/29 04:27:22;;;;;;;12.45;4.78;;;;;;;;;;5059848;28;20156;-77
2022/07/29 04:29:49;;;;;;;9.52;4.50;;;;;;;;;;5054253;28;20089;-78
2022/07/29 04:32:15;;;;;;;15.82;6.00;;;;;;;;;;5070792;28;20551;-75
2022/07/29 04:34:41;;;;;;;11.98;4.43;;;;;;;;;;5055344;28;20035;-78
2022/07/29 04:37:07;;;;;;;15.50;5.47;;;;;;;;;;5068041;28;20379;-75
2022/07/29 04:39:33;;;;;;;9.77;4.20;;;;;;;;;;5059212;28;20029;-75
2022/07/29 04:41:59;;;;;;;9.57;4.50;;;;;;;;;;5053514;28;20044;-78
2022/07/29 04:44:26;;;;;;;11.45;4.57;;;;;;;;;;5040535;28;20045;-78
2022/07/29 04:46:52;;;;;;;15.10;4.10;;;;;;;;;;5035343;28;20069;-77
2022/07/29 04:49:18;;;;;;;9.23;4.43;;;;;;;;;;5036934;28;20438;-77
2022/07/29 04:51:44;;;;;;;7.78;4.80;;;;;;;;;;5038005;28;20438;-75
2022/07/29 04:54:10;;;;;;;12.95;4.72;;;;;;;;;;5034228;28;20045;-77
2022/07/29 04:56:36;;;;;;;10.43;4.22;;;;;;;;;;5034865;28;20128;-76
2022/07/29 04:59:02;;;;;;;15.95;5.30;;;;;;;;;;5034170;28;20080;-76
2022/07/29 05:01:28;;;;;;;8.43;4.32;;;;;;;;;;5036428;28;20049;-78
2022/07/29 05:03:54;;;;;;;8.35;4.03;;;;;;;;;;5033929;28;20507;-78
2022/07/29 05:06:19;;;;;;;10.30;4.10;;;;;;;;;;5034642;28;20056;-77
2022/07/29 05:08:45;;;;;;;12.80;4.30;;;;;;;;;;5034389;28;20033;-76
2022/07/29 05:11:11;;;;;;;16.40;4.88;;;;;;;;;;5050784;28;20116;-77
2022/07/29 05:13:37;;;;;;;15.40;4.80;;;;;;;;;;5053168;28;20472;-73
2022/07/29 05:16:03;;;;;;;16.30;4.38;;;;;;;;;;5050550;28;20033;-77
2022/07/29 05:18:29;;;;;;;12.30;3.50;;;;;;;;;;5033678;28;20548;-75
2022/07/29 05:20:56;;;;;;;8.52;3.47;;;;;;;;;;5033779;28;20105;-76
2022/07/29 05:23:21;;;;;;;9.05;3.70;;;;;;;;;;5033110;28;20116;-74
2022/07/29 05:25:47;;;;;;;10.10;4.10;;;;;;;;;;5049039;28;20108;-76
2022/07/29 05:28:13;;;;;;;9.35;3.53;;;;;;;;;;5050771;28;20029;-76
2022/07/29 05:30:39;;;;;;;7.40;3.50;;;;;;;;;;5051841;28;20041;-72
2022/07/29 05:33:06;;;;;;;16.73;4.95;;;;;;;;;;5052099;28;20472;-78
2022/07/29 05:35:32;;;;;;;5.78;2.90;;;;;;;;;;5052312;28;20111;-78
2022/07/29 05:37:58;;;;;;;8.73;3.92;;;;;;;;;;5052479;28;20033;-75
2022/07/29 05:40:24;;;;;;;10.10;3.83;;;;;;;;;;5053307;28;20119;-75
2022/07/29 05:42:50;;;;;;;9.05;3.70;;;;;;;;;;5045538;28;20379;-74
2022/07/29 05:45:15;;;;;;;12.45;3.55;;;;;;;;;;5032985;28;20033;-75
2022/07/29 05:47:41;;;;;;;9.27;3.45;;;;;;;;;;5034964;28;20167;-75
2022/07/29 05:50:08;;;;;;;8.15;3.60;;;;;;;;;;5034888;28;20033;-74
2022/07/29 05:52:34;;;;;;;17.08;4.03;;;;;;;;;;5034882;28;20045;-74
2022/07/29 05:55:04;;;;;;;7.43;4.05;;;;;;;;;;5034904;28;20033;-80
2022/07/29 05:57:29;;;;;;;7.65;3.55;;;;;;;;;;5035322;28;20036;-77
2022/07/29 05:59:55;;;;;;;10.50;3.40;;;;;;;;;;5035336;28;20124;-76
2022/07/29 06:02:21;;;;;;;13.10;3.45;;;;;;;;;;5034915;28;20037;-78
2022/07/29 06:04:48;;;;;;;8.02;3.92;;;;;;;;;;5034798;28;20121;-76
2022/07/29 06:07:14;;;;;;;11.15;3.80;;;;;;;;;;5034561;28;20480;-79
2022/07/29 06:09:40;;;;;;;9.77;3.42;;;;;;;;;;5034922;28;20056;-76
2022/07/29 06:12:06;;;;;;;6.15;3.17;;;;;;;;;;5034665;28;20064;-77
2022/07/29 06:14:32;;;;;;;9.07;3.88;;;;;;;;;;5034276;28;20496;-79
2022/07/29 06:16:58;;;;;;;9.73;3.90;;;;;;;;;;5034587;28;20038;-81
2022/07/29 06:19:24;;;;;;;8.95;3.50;;;;;;;;;;5034883;28;20445;-78
2022/07/29 06:21:50;;;;;;;9.25;3.90;;;;;;;;;;5035162;28;20488;-75
2022/07/29 06:24:16;;;;;;;8.30;3.50;;;;;;;;;;5034631;28;20049;-75
2022/07/29 06:26:42;;;;;;;7.63;3.90;;;;;;;;;;5034809;28;20098;-71
2022/07/29 06:29:10;;;;;;;8.23;3.70;;;;;;;;;;5034499;28;20034;-76
2022/07/29 06:31:37;;;;;;;11.90;3.50;;;;;;;;;;5034211;28;20044;-74
2022/07/29 06:34:03;;;;;;;15.57;4.85;;;;;;;;;;5034327;28;20128;-82
2022/07/29 06:36:30;;;;;;;5.63;3.40;;;;;;;;;;5034533;28;20384;-75
2022/07/29 06:38:56;;;;;;;7.90;3.58;;;;;;;;;;5034461;28;20128;-76
2022/07/29 06:41:22;;;;;;;8.95;3.20;;;;;;;;;;5034149;28;20123;-74
2022/07/29 06:43:51;;;;;;;6.70;3.45;;;;;;;;;;5031491;28;20034;-75
2022/07/29 06:46:18;;;;;;;9.88;3.30;;;;;;;;;;5033901;28;20041;-76
2022/07/29 06:48:44;;;;;;;12.40;4.28;;;;;;;;;;5044865;28;20116;-77
2022/07/29 06:51:11;;;;;;;7.22;3.40;;;;;;;;;;5048979;28;20461;-76
2022/07/29 06:53:38;;;;;;;6.32;3.53;;;;;;;;;;5032765;28;20425;-75
2022/07/29 06:56:08;;;;;;;11.15;3.50;;;;;;;;;;5033522;28;20040;-76
2022/07/29 06:58:34;;;;;;;8.50;3.70;;;;;;;;;;5033213;28;20116;-77
2022/07/29 07:01:03;;;;;;;6.03;3.22;;;;;;;;;;5033089;28;20555;-77
2022/07/29 07:03:29;;;;;;;9.40;3.70;;;;;;;;;;5033265;28;20029;-76
2022/07/29 07:05:55;;;;;;;6.93;4.00;;;;;;;;;;5032250;28;20042;-79
2022/07/29 07:08:23;;;;;;;15.70;3.80;;;;;;;;;;5033357;28;20114;-78
2022/07/29 07:10:50;;;;;;;8.15;4.20;;;;;;;;;;5033336;28;20025;-76
2022/07/29 07:13:17;;;;;;;9.68;3.83;;;;;;;;;;5031520;28;20057;-77
2022/07/29 07:15:44;;;;;;;9.48;3.28;;;;;;;;;;5033164;28;20029;-76
2022/07/29 07:18:10;;;;;;;5.47;3.47;;;;;;;;;;5033157;28;20122;-77
2022/07/29 07:20:36;;;;;;;11.60;3.92;;;;;;;;;;5033164;28;20029;-72
2022/07/29 07:23:03;;;;;;;11.75;4.13;;;;;;;;;;5032845;28;20083;-75
2022/07/29 07:25:29;;;;;;;14.45;4.22;;;;;;;;;;5032191;28;20037;-73
2022/07/29 07:27:55;;;;;;;7.90;3.63;;;;;;;;;;5032776;28;20037;-75
2022/07/29 07:30:21;;;;;;;9.10;3.33;;;;;;;;;;5032596;28;20056;-75
2022/07/29 07:32:47;;;;;;;8.57;3.78;;;;;;;;;;5032697;28;20042;-77
2022/07/29 07:35:13;;;;;;;11.02;4.00;;;;;;;;;;5032849;28;20037;-77
2022/07/29 07:37:42;;;;;;;7.32;3.70;;;;;;;;;;5033077;28;20057;-79
2022/07/29 07:40:11;;;;;;;11.82;6.13;;;;;;;;;;5032315;28;20550;-76
2022/07/29 07:42:38;;;;;;;7.32;3.92;;;;;;;;;;5033103;28;20036;-77
2022/07/29 07:45:05;;;;;;;8.52;3.97;;;;;;;;;;5032487;28;20033;-77
2022/07/29 07:47:32;;;;;;;11.85;3.95;;;;;;;;;;5032806;28;20033;-77
2022/07/29 07:49:58;;;;;;;7.95;3.53;;;;;;;;;;5033233;28;20061;-77
2022/07/29 07:52:24;;;;;;;11.07;4.28;;;;;;;;;;5036723;28;20037;-77
2022/07/29 07:54:50;;;;;;;9.25;4.05;;;;;;;;;;5043931;28;20044;-79
2022/07/29 07:57:16;;;;;;;7.20;3.75;;;;;;;;;;5032406;28;20120;-78
2022/07/29 07:59:42;;;;;;;9.02;4.35;;;;;;;;;;5037955;28;20037;-79
2022/07/29 08:02:09;;;;;;;8.95;4.05;;;;;;;;;;5043706;28;20361;-80
2022/07/29 08:04:35;;;;;;;11.55;3.90;;;;;;;;;;5033103;28;20076;-77
2022/07/29 08:07:02;;;;;;;9.10;4.10;;;;;;;;;;5031630;28;20030;-80
2022/07/29 08:09:29;;;;;;;9.93;4.40;;;;;;;;;;5048563;28;20056;-80
2022/07/29 08:11:55;;;;;;;11.00;4.32;;;;;;;;;;5051026;28;20587;-77
2022/07/29 08:14:21;;;;;;;10.43;4.40;;;;;;;;;;5044072;28;20077;-78
2022/07/29 08:16:47;;;;;;;11.90;3.85;;;;;;;;;;5039896;28;20110;-77
2022/07/29 08:19:13;;;;;;;12.60;4.13;;;;;;;;;;5037340;28;20453;-78
2022/07/29 08:21:39;;;;;;;11.85;4.05;;;;;;;;;;5031260;28;20030;-83
2022/07/29 08:26:50;;;;;;;7.97;3.88;;;;;;;;;;5045268;28;20549;-78
2022/07/29 08:29:16;;;;;;;11.52;4.45;;;;;;;;;;5050596;28;20036;-78
2022/07/29 08:31:45;;;;;;;10.02;3.83;;;;;;;;;;5044950;28;20037;-77
2022/07/29 08:34:11;;;;;;;9.35;3.92;;;;;;;;;;5034644;28;20096;-78
2022/07/29 08:36:38;;;;;;;8.95;3.67;;;;;;;;;;5036446;28;20099;-76
2022/07/29 08:39:04;;;;;;;9.55;4.25;;;;;;;;;;5041900;28;20099;-78
2022/07/29 08:41:31;;;;;;;8.65;4.20;;;;;;;;;;5050831;28;20171;-77
2022/07/29 08:43:57;;;;;;;9.25;4.30;;;;;;;;;;5049532;28;20028;-77
2022/07/29 08:46:23;;;;;;;8.05;4.20;;;;;;;;;;5038392;28;20036;-75
2022/07/29 08:48:49;;;;;;;9.82;4.18;;;;;;;;;;5033098;28;20084;-78
2022/07/29 08:51:18;;;;;;;9.32;4.18;;;;;;;;;;5047805;28;20499;-76
2022/07/29 08:53:49;;;;;;;8.23;4.10;;;;;;;;;;5046778;28;20041;-77
2022/07/29 08:56:20;;;;;;;8.80;4.50;;;;;;;;;;5030502;28;20037;-77
2022/07/29 08:58:48;;;;;;;12.57;4.45;;;;;;;;;;5031073;28;20076;-78
2022/07/29 09:01:17;;;;;;;10.27;4.60;;;;;;;;;;5031471;28;20033;-78
2022/07/29 09:03:45;;;;;;;12.82;5.30;;;;;;;;;;5048200;28;20033;-76
2022/07/29 09:06:17;;;;;;;10.30;4.07;;;;;;;;;;5050401;28;20037;-75
2022/07/29 09:08:44;;;;;;;6.43;4.30;;;;;;;;;;5050250;28;20061;-76
2022/07/29 09:11:11;;;;;;;11.77;4.80;;;;;;;;;;5048430;28;20523;-79
2022/07/29 09:13:37;;;;;;;5.40;4.25;;;;;;;;;;5039306;28;20029;-75
2022/07/29 09:16:04;;;;;;;11.75;5.38;;;;;;;;;;5048945;28;20440;-79
2022/07/29 09:18:35;;;;;;;7.20;4.55;;;;;;;;;;5033069;28;20040;-76
2022/07/29 09:24:09;;;;;;;8.05;4.28;;;;;;;;;;5034310;28;20038;-75
2022/07/29 09:26:44;;;;;;;13.57;5.75;;;;;;;;;;5034408;28;20037;-77
2022/07/29 09:29:22;;;;;;;12.18;4.90;;;;;;;;;;5053936;28;20029;-74
2022/07/29 09:31:50;;;;;;;7.88;4.53;;;;;;;;;;5054128;28;20045;-75
2022/07/29 09:34:31;;;;;;;8.20;4.50;;;;;;;;;;5053263;28;20040;-75
2022/07/29 09:36:57;;;;;;;7.10;3.85;;;;;;;;;;5042779;28;20036;-74
2022/07/29 09:39:34;;;;;;;9.32;4.55;;;;;;;;;;5054146;28;20025;-75
2022/07/29 09:42:03;;;;;;;11.18;4.90;;;;;;;;;;5053579;28;20029;-76
2022/07/29 09:44:42;;;;;;;10.18;4.60;;;;;;;;;;5052787;28;20037;-76
2022/07/29 09:47:08;;;;;;;6.20;4.20;;;;;;;;;;5051147;28;20041;-80
2022/07/29 09:49:49;;;;;;;6.63;3.90;;;;;;;;;;5052652;28;20036;-79
2022/07/29 09:52:15;;;;;;;8.23;4.93;;;;;;;;;;5040452;28;20484;-76
2022/07/29 09:54:41;;;;;;;10.15;4.53;;;;;;;;;;5033695;28;20030;-76
2022/07/29 09:57:12;;;;;;;7.75;3.90;;;;;;;;;;5033441;28;20105;-76
2022/07/29 09:59:38;;;;;;;6.43;4.00;;;;;;;;;;5041880;28;20106;-75
2022/07/29 10:02:14;;;;;;;11.18;4.13;;;;;;;;;;5053000;28;20033;-73
2022/07/29 10:04:42;;;;;;;10.60;4.43;;;;;;;;;;5052752;28;20041;-74
2022/07/29 10:07:08;;;;;;;7.35;3.67;;;;;;;;;;5053475;28;20029;-77
2022/07/29 10:09:34;;;;;;;5.20;4.00;;;;;;;;;;5052900;28;20116;-79
2022/07/29 10:12:13;;;;;;;6.70;3.33;;;;;;;;;;5052564;28;20021;-75
2022/07/29 10:14:40;;;;;;;6.18;3.25;;;;;;;;;;5053199;28;20538;-77
2022/07/29 10:17:08;;;;;;;6.93;3.20;;;;;;;;;;5052652;28;20025;-75
2022/07/29 10:19:35;;;;;;;9.45;2.97;;;;;;;;;;5053222;28;20156;-74
2022/07/29 10:22:06;;;;;;;7.88;3.85;;;;;;;;;;5051329;28;20033;-75
2022/07/29 10:24:32;;;;;;;6.32;4.05;;;;;;;;;;5053256;28;20432;-77
2022/07/29 10:27:23;;;;;;;6.10;3.38;;;;;;;;;;5069007;28;20033;-78
2022/07/29 10:30:28;;;;;;;9.25;3.50;;;;;;;;;;4941262;28;20045;-76
2022/07/29 10:33:14;;;;;;;6.28;2.92;;;;;;;;;;5033786;28;20061;-78
2022/07/29 10:35:42;;;;;;;8.13;2.72;;;;;;;;;;5033837;28;20484;-78
2022/07/29 10:38:20;;;;;;;6.68;2.72;;;;;;;;;;5015048;28;20385;-75
2022/07/29 10:41:26;;;;;;;7.15;2.70;;;;;;;;;;5031172;28;20128;-77
2022/07/29 10:44:12;;;;;;;3.58;2.60;;;;;;;;;;5017817;28;20551;-76
2022/07/29 10:46:40;;;;;;;7.95;2.90;;;;;;;;;;5013646;28;20045;-78
2022/07/29 10:49:08;;;;;;;6.25;2.65;;;;;;;;;;5018587;28;20025;-76
2022/07/29 10:51:56;;;;;;;5.90;2.38;;;;;;;;;;5021373;28;20045;-76
2022/07/29 10:54:47;;;;;;;3.50;2.42;;;;;;;;;;5013751;28;20041;-75
2022/07/29 10:57:25;;;;;;;3.42;2.50;;;;;;;;;;5013662;28;20117;-78
2022/07/29 11:00:00;;;;;;;3.88;2.60;;;;;;;;;;5012315;28;20460;-78
2022/07/29 11:02:32;;;;;;;5.05;2.70;;;;;;;;;;5022327;28;20389;-77
2022/07/29 11:04:59;;;;;;;4.65;2.85;;;;;;;;;;5031932;28;20079;-78
2022/07/29 11:07:26;;;;;;;4.38;3.03;;;;;;;;;;5033136;28;20157;-76
2022/07/29 11:10:14;;;;;;;6.47;3.15;;;;;;;;;;5033410;28;20088;-76
2022/07/29 11:12:42;;;;;;;6.65;3.25;;;;;;;;;;5022998;28;20041;-77
2022/07/29 11:15:17;;;;;;;3.85;2.55;;;;;;;;;;5011566;28;20315;-77
2022/07/29 11:17:52;;;;;;;4.00;2.40;;;;;;;;;;5012739;28;20586;-76
2022/07/29 11:20:41;;;;;;;6.45;2.67;;;;;;;;;;5013860;28;20088;-75
2022/07/29 11:23:20;;;;;;;5.90;3.35;;;;;;;;;;5012930;28;20053;-76
2022/07/29 11:26:09;;;;;;;4.45;2.90;;;;;;;;;;5024351;28;20033;-77
2022/07/29 11:28:39;;;;;;;8.07;2.78;;;;;;;;;;5012168;28;20073;-79
2022/07/29 11:31:09;;;;;;;4.75;2.67;;;;;;;;;;5020288;28;20064;-75
2022/07/29 11:33:35;;;;;;;4.38;2.78;;;;;;;;;;5033260;28;20128;-83
2022/07/29 11:36:12;;;;;;;7.05;2.80;;;;;;;;;;5048584;28;20029;-75
2022/07/29 11:38:40;;;;;;;5.13;2.60;;;;;;;;;;5031994;28;20045;-74
2022/07/29 11:41:24;;;;;;;4.65;2.70;;;;;;;;;;5032535;28;20060;-76
2022/07/29 11:43:57;;;;;;;5.60;2.67;;;;;;;;;;5032685;28;20374;-80
2022/07/29 11:46:42;;;;;;;4.93;2.70;;;;;;;;;;5031896;28;20382;-78
2022/07/29 11:49:09;;;;;;;5.80;2.88;;;;;;;;;;5031744;28;20034;-76
2022/07/29 11:51:38;;;;;;;4.65;2.45;;;;;;;;;;5032945;28;20087;-76
2022/07/29 11:54:05;;;;;;;6.93;2.83;;;;;;;;;;5032831;28;20038;-75
2022/07/29 11:56:32;;;;;;;8.07;3.15;;;;;;;;;;5032927;28;20036;-76
2022/07/29 11:59:06;;;;;;;4.57;3.75;;;;;;;;;;5032872;28;20036;-77
2022/07/29 12:01:32;;;;;;;10.05;6.32;;;;;;;;;;5033343;28;20380;-76
2022/07/29 12:04:06;;;;;;;7.65;3.65;;;;;;;;;;5032881;28;20038;-76
2022/07/29 12:06:36;;;;;;;9.50;3.80;;;;;;;;;;5032714;28;20378;-75
2022/07/29 12:09:08;;;;;;;5.95;2.85;;;;;;;;;;5032743;28;20030;-76
2022/07/29 12:11:34;;;;;;;8.23;3.55;;;;;;;;;;5032820;28;20484;-77
2022/07/29 12:14:00;;;;;;;5.20;3.00;;;;;;;;;;5032827;28;20038;-77
2022/07/29 12:16:36;;;;;;;3.20;2.70;;;;;;;;;;5032824;28;20072;-74
2022/07/29 12:19:04;;;;;;;4.95;3.10;;;;;;;;;;5032870;28;20511;-75
2022/07/29 12:21:51;;;;;;;7.57;3.47;;;;;;;;;;5031707;28;20128;-75
2022/07/29 12:24:19;;;;;;;5.32;3.13;;;;;;;;;;5031437;28;20076;-79
2022/07/29 12:26:59;;;;;;;4.55;3.60;;;;;;;;;;5033054;28;20061;-77
2022/07/29 12:29:29;;;;;;;3.80;2.95;;;;;;;;;;5033045;28;20029;-79
2022/07/29 12:31:56;;;;;;;8.00;3.50;;;;;;;;;;5032604;28;20057;-75
2022/07/29 12:34:24;;;;;;;4.65;3.30;;;;;;;;;;5046818;28;20040;-76
2022/07/29 12:36:50;;;;;;;8.15;3.60;;;;;;;;;;5052291;28;20033;-79
2022/07/29 12:39:17;;;;;;;5.75;3.28;;;;;;;;;;5052480;28;20025;-77
2022/07/29 12:41:43;;;;;;;6.22;3.75;;;;;;;;;;5052650;28;20171;-83
2022/07/29 12:44:10;;;;;;;7.38;3.70;;;;;;;;;;5051030;28;20039;-75
2022/07/29 12:46:36;;;;;;;6.80;3.25;;;;;;;;;;5052115;28;20475;-74
2022/07/29 12:49:04;;;;;;;5.00;3.60;;;;;;;;;;5051516;28;20095;-75
2022/07/29 12:51:36;;;;;;;4.55;3.08;;;;;;;;;;5052077;28;20037;-75
2022/07/29 12:54:14;;;;;;;6.03;3.33;;;;;;;;;;5055792;28;20033;-76
2022/07/29 12:56:41;;;;;;;6.90;4.07;;;;;;;;;;5056292;28;20033;-76
2022/07/29 12:59:19;;;;;;;6.15;3.40;;;;;;;;;;5054848;28;20060;-75
2022/07/29 13:01:47;;;;;;;7.85;3.40;;;;;;;;;;5055346;28;20037;-74
2022/07/29 13:04:27;;;;;;;8.00;3.60;;;;;;;;;;5055204;28;20041;-74
2022/07/29 13:07:05;;;;;;;4.93;3.17;;;;;;;;;;5055905;28;20033;-77
2022/07/29 13:09:42;;;;;;;7.13;3.50;;;;;;;;;;5055818;28;20037;-76
2022/07/29 13:12:11;;;;;;;5.78;3.50;;;;;;;;;;5056162;28;20037;-78
2022/07/29 13:14:43;;;;;;;4.05;3.65;;;;;;;;;;5055245;28;20083;-77
2022/07/29 13:17:10;;;;;;;3.90;3.17;;;;;;;;;;5055866;28;20040;-78
2022/07/29 13:19:50;;;;;;;5.20;3.67;;;;;;;;;;5055966;28;20033;-78
2022/07/29 13:22:21;;;;;;;4.68;3.40;;;;;;;;;;5055639;28;20025;-83
2022/07/29 13:24:51;;;;;;;5.07;3.45;;;;;;;;;;5055587;28;20120;-84
2022/07/29 13:27:19;;;;;;;5.20;3.53;;;;;;;;;;5055413;28;20044;-79
2022/07/29 13:29:46;;;;;;;5.40;3.42;;;;;;;;;;5055773;28;20037;-77
2022/07/29 13:32:13;;;;;;;5.50;3.53;;;;;;;;;;5055487;28;20041;-78
2022/07/29 13:34:40;;;;;;;6.35;3.50;;;;;;;;;;5055176;28;20381;-79
2022/07/29 13:37:06;;;;;;;6.68;3.42;;;;;;;;;;5054484;28;20107;-80
2022/07/29 13:39:32;;;;;;;6.63;3.33;;;;;;;;;;5054034;28;20514;-80
2022/07/29 13:41:58;;;;;;;7.53;3.70;;;;;;;;;;5055597;28;20029;-78
2022/07/29 13:44:24;;;;;;;6.70;3.60;;;;;;;;;;5054481;28;20029;-77
2022/07/29 13:46:50;;;;;;;5.50;3.25;;;;;;;;;;5055685;28;20111;-78
2022/07/29 13:49:16;;;;;;;6.38;3.40;;;;;;;;;;5055652;28;20079;-77
2022/07/29 13:51:42;;;;;;;4.43;3.47;;;;;;;;;;5055372;28;20535;-76
2022/07/29 13:54:09;;;;;;;4.68;3.33;;;;;;;;;;5055358;28;20102;-76
2022/07/29 13:56:35;;;;;;;5.90;3.40;;;;;;;;;;5055443;28;20025;-78
2022/07/29 13:59:00;;;;;;;6.50;3.72;;;;;;;;;;5055529;28;20044;-77
2022/07/29 14:01:27;;;;;;;7.07;3.33;;;;;;;;;;5055473;28;20090;-76
2022/07/29 14:03:53;;;;;;;8.15;3.90;;;;;;;;;;5054955;28;20119;-77
2022/07/29 14:06:19;;;;;;;6.03;3.92;;;;;;;;;;5055342;28;20048;-76
2022/07/29 14:08:45;;;;;;;4.57;3.30;;;;;;;;;;5055346;28;20040;-77
2022/07/29 14:11:11;;;;;;;5.20;3.00;;;;;;;;;;5055046;28;20128;-76
2022/07/29 14:13:37;;;;;;;7.18;3.35;;;;;;;;;;5052262;28;20033;-76
2022/07/29 14:16:03;;;;;;;9.88;3.30;;;;;;;;;;5054391;28;20041;-75
2022/07/29 14:18:29;;;;;;;5.40;3.53;;;;;;;;;;5054014;28;20037;-75
2022/07/29 14:20:55;;;;;;;6.43;3.00;;;;;;;;;;5052953;28;20113;-75
2022/07/29 14:23:21;;;;;;;5.53;3.20;;;;;;;;;;5054119;28;20365;-76
2022/07/29 14:25:47;;;;;;;3.58;3.08;;;;;;;;;;5054393;28;20121;-76
2022/07/29 14:28:13;;;;;;;6.03;3.53;;;;;;;;;;5054325;28;20068;-74
2022/07/29 14:30:39;;;;;;;3.88;3.13;;;;;;;;;;5053628;28;20089;-73
2022/07/29 14:33:05;;;;;;;7.47;3.08;;;;;;;;;;5054026;28;20100;-74
2022/07/29 14:35:31;;;;;;;4.40;3.10;;;;;;;;;;5052435;28;20033;-76
2022/07/29 14:37:57;;;;;;;5.32;2.88;;;;;;;;;;5054292;28;20036;-80
2022/07/29 14:40:25;;;;;;;6.90;3.13;;;;;;;;;;5053870;28;20079;-80
2022/07/29 14:42:51;;;;;;;6.55;3.28;;;;;;;;;;5053319;28;20033;-79
2022/07/29 14:45:17;;;;;;;4.07;3.00;;;;;;;;;;5053853;28;20495;-77
2022/07/29 14:47:43;;;;;;;5.45;3.13;;;;;;;;;;5054392;28;20037;-80
2022/07/29 14:50:10;;;;;;;5.13;3.15;;;;;;;;;;5052885;28;20124;-77
2022/07/29 14:52:36;;;;;;;4.85;2.90;;;;;;;;;;5052420;28;20094;-78
2022/07/29 14:55:03;;;;;;;6.00;2.90;;;;;;;;;;5053469;28;20037;-76
2022/07/29 14:57:29;;;;;;;5.50;3.13;;;;;;;;;;5053837;28;20486;-75
2022/07/29 14:59:55;;;;;;;5.65;3.25;;;;;;;;;;5053700;28;20112;-74